sensor_id;sensor_type;location;lat;lon;timestamp;pressure;altitude;pressure_sealevel;temperature;humidity
56719;BME280;42597;40.636;0.278;2023-02-28T00:00:18;96821.84;;;7.43;46.18
56719;BME280;42597;40.636;0.278;2023-02-28T00:02:45;96853.97;;;7.85;40.62
56719;BME280;42597;40.636;0.278;2023-02-28T00:05:12;96819.44;;;7.87;41.38
56719;BME280;42597;40.636;0.278;2023-02-28T00:07:38;96807.44;;;9.58;48.86
56719;BME280;42597;40.636;0.278;2023-02-28T00:10:05;96805.03;;;10.35;46.77
56719;BME280;42597;40.636;0.278;2023-02-28T00:12:33;96828.03;;;9.50;44.93
56719;BME280;42597;40.636;0.278;2023-02-28T00:14:59;96857.94;;;8.49;42.49
56719;BME280;42597;40.636;0.278;2023-02-28T00:17:25;96862.44;;;9.25;45.69
56719;BME280;42597;40.636;0.278;2023-02-28T00:19:51;96854.09;;;8.62;40.42
56719;BME280;42597;40.636;0.278;2023-02-28T00:22:18;96847.47;;;9.87;42.29
56719;BME280;42597;40.636;0.278;2023-02-28T00:24:44;96846.88;;;8.66;50.60
56719;BME280;42597;40.636;0.278;2023-02-28T00:27:10;96839.66;;;10.84;43.46
56719;BME280;42597;40.636;0.278;2023-02-28T00:29:37;96850.59;;;10.21;43.36
56719;BME280;42597;40.636;0.278;2023-02-28T00:32:03;96852.06;;;8.22;43.24
56719;BME280;42597;40.636;0.278;2023-02-28T00:34:29;96861.84;;;8.92;46.83
56719;BME280;42597;40.636;0.278;2023-02-28T00:36:54;96862.38;;;7.38;41.02
56719;BME280;42597;40.636;0.278;2023-02-28T00:39:20;96853.47;;;10.28;41.86
56719;BME280;42597;40.636;0.278;2023-02-28T00:41:46;96851.66;;;9.69;46.58
56719;BME280;42597;40.636;0.278;2023-02-28T00:44:11;96850.50;;;7.84;45.28
56719;BME280;42597;40.636;0.278;2023-02-28T00:46:37;96864.56;;;6.10;47.32
56719;BME280;42597;40.636;0.278;2023-02-28T00:49:02;96866.56;;;5.11;42.69
56719;BME280;42597;40.636;0.278;2023-02-28T00:51:28;96869.53;;;7.91;40.71
56719;BME280;42597;40.636;0.278;2023-02-28T00:53:54;96869.66;;;7.37;53.91
56719;BME280;42597;40.636;0.278;2023-02-28T00:56:19;96829.78;;;9.58;49.20
56719;BME280;42597;40.636;0.278;2023-02-28T00:58:45;96852.06;;;7.98;42.45
56719;BME280;42597;40.636;0.278;2023-02-28T01:01:10;96839.31;;;10.67;42.76
56719;BME280;42597;40.636;0.278;2023-02-28T01:03:36;96835.13;;;9.86;46.55
56719;BME280;42597;40.636;0.278;2023-02-28T01:06:02;96839.03;;;7.75;41.54
56719;BME280;42597;40.636;0.278;2023-02-28T01:08:27;96830.19;;;8.36;44.53
56719;BME280;42597;40.636;0.278;2023-02-28T01:10:53;96823.47;;;8.30;39.71
56719;BME280;42597;40.636;0.278;2023-02-28T01:13:19;96829.63;;;8.95;43.64
56719;BME280;42597;40.636;0.278;2023-02-28T01:15:50;96830.75;;;9.98;46.40
56719;BME280;42597;40.636;0.278;2023-02-28T01:18:16;96810.94;;;7.85;39.39
56719;BME280;42597;40.636;0.278;2023-02-28T01:20:42;96835.03;;;7.03;41.11
56719;BME280;42597;40.636;0.278;2023-02-28T01:23:08;96826.63;;;8.97;51.65
56719;BME280;42597;40.636;0.278;2023-02-28T01:25:35;96835.66;;;9.04;45.26
56719;BME280;42597;40.636;0.278;2023-02-28T01:28:01;96804.50;;;8.51;52.55
56719;BME280;42597;40.636;0.278;2023-02-28T01:30:26;96823.94;;;6.92;46.42
56719;BME280;42597;40.636;0.278;2023-02-28T01:32:52;96821.78;;;7.52;40.93
56719;BME280;42597;40.636;0.278;2023-02-28T01:35:19;96811.16;;;8.16;46.04
56719;BME280;42597;40.636;0.278;2023-02-28T01:37:45;96841.63;;;5.36;48.06
56719;BME280;42597;40.636;0.278;2023-02-28T01:40:12;96821.44;;;8.27;45.75
56719;BME280;42597;40.636;0.278;2023-02-28T01:42:37;96813.84;;;8.04;50.51
56719;BME280;42597;40.636;0.278;2023-02-28T01:45:18;96814.72;;;8.33;42.24
56719;BME280;42597;40.636;0.278;2023-02-28T01:47:46;96821.34;;;7.99;49.21
56719;BME280;42597;40.636;0.278;2023-02-28T01:50:16;96803.84;;;7.10;48.05
56719;BME280;42597;40.636;0.278;2023-02-28T01:52:44;96801.50;;;8.80;47.03
56719;BME280;42597;40.636;0.278;2023-02-28T01:55:12;96824.25;;;7.57;41.99
56719;BME280;42597;40.636;0.278;2023-02-28T01:57:43;96787.00;;;9.57;49.19
56719;BME280;42597;40.636;0.278;2023-02-28T02:00:14;96810.16;;;7.72;47.36
56719;BME280;42597;40.636;0.278;2023-02-28T02:02:43;96830.50;;;10.03;47.48
56719;BME280;42597;40.636;0.278;2023-02-28T02:05:15;96784.00;;;10.45;48.55
56719;BME280;42597;40.636;0.278;2023-02-28T02:07:43;96800.97;;;6.95;43.70
56719;BME280;42597;40.636;0.278;2023-02-28T02:12:50;96788.78;;;8.65;50.07
56719;BME280;42597;40.636;0.278;2023-02-28T02:15:38;96803.53;;;8.19;43.06
56719;BME280;42597;40.636;0.278;2023-02-28T02:18:42;96803.84;;;8.54;46.20
56719;BME280;42597;40.636;0.278;2023-02-28T02:24:03;96773.88;;;8.83;47.63
56719;BME280;42597;40.636;0.278;2023-02-28T02:27:01;96796.88;;;7.42;43.42
56719;BME280;42597;40.636;0.278;2023-02-28T02:43:44;96782.69;;;8.96;48.15
56719;BME280;42597;40.636;0.278;2023-02-28T02:46:41;96768.25;;;9.64;47.97
56719;BME280;42597;40.636;0.278;2023-02-28T02:49:27;96761.56;;;10.41;46.96
56719;BME280;42597;40.636;0.278;2023-02-28T02:51:55;96763.97;;;9.15;47.33
56719;BME280;42597;40.636;0.278;2023-02-28T02:54:32;96747.56;;;11.58;44.73
56719;BME280;42597;40.636;0.278;2023-02-28T02:57:07;96789.34;;;9.74;45.68
56719;BME280;42597;40.636;0.278;2023-02-28T02:59:35;96770.19;;;9.04;50.04
56719;BME280;42597;40.636;0.278;2023-02-28T03:02:04;96776.94;;;6.65;44.16
56719;BME280;42597;40.636;0.278;2023-02-28T03:04:35;96784.56;;;7.41;45.18
56719;BME280;42597;40.636;0.278;2023-02-28T03:07:03;96779.16;;;8.52;46.31
56719;BME280;42597;40.636;0.278;2023-02-28T03:09:33;96773.50;;;8.97;46.59
56719;BME280;42597;40.636;0.278;2023-02-28T03:11:58;96767.69;;;9.11;42.37
56719;BME280;42597;40.636;0.278;2023-02-28T03:14:27;96776.66;;;9.15;50.10
56719;BME280;42597;40.636;0.278;2023-02-28T03:28:16;96757.78;;;8.19;43.93
56719;BME280;42597;40.636;0.278;2023-02-28T03:30:51;96764.25;;;9.89;45.84
56719;BME280;42597;40.636;0.278;2023-02-28T03:33:26;96778.41;;;7.53;40.63
56719;BME280;42597;40.636;0.278;2023-02-28T03:36:07;96810.56;;;6.41;44.84
56719;BME280;42597;40.636;0.278;2023-02-28T03:38:40;96772.94;;;9.99;45.37
56719;BME280;42597;40.636;0.278;2023-02-28T03:41:14;96823.34;;;9.63;47.48
56719;BME280;42597;40.636;0.278;2023-02-28T03:43:44;96755.38;;;8.54;43.66
56719;BME280;42597;40.636;0.278;2023-02-28T03:46:17;96777.41;;;7.58;43.46
56719;BME280;42597;40.636;0.278;2023-02-28T03:49:00;96803.53;;;7.12;40.68
56719;BME280;42597;40.636;0.278;2023-02-28T03:51:29;96799.38;;;8.86;47.49
56719;BME280;42597;40.636;0.278;2023-02-28T03:54:04;96809.41;;;9.77;42.34
56719;BME280;42597;40.636;0.278;2023-02-28T03:59:18;96866.06;;;7.91;45.10
56719;BME280;42597;40.636;0.278;2023-02-28T04:01:47;96861.47;;;6.00;44.00
56719;BME280;42597;40.636;0.278;2023-02-28T04:04:14;96893.09;;;8.07;47.29
56719;BME280;42597;40.636;0.278;2023-02-28T04:06:41;96898.66;;;6.69;46.63
56719;BME280;42597;40.636;0.278;2023-02-28T04:09:09;96873.09;;;7.71;46.16
56719;BME280;42597;40.636;0.278;2023-02-28T04:14:08;96872.16;;;9.02;49.50
56719;BME280;42597;40.636;0.278;2023-02-28T04:16:35;96910.34;;;7.48;47.81
56719;BME280;42597;40.636;0.278;2023-02-28T04:19:03;96827.50;;;9.01;46.23
56719;BME280;42597;40.636;0.278;2023-02-28T04:21:50;96852.94;;;9.91;47.73
56719;BME280;42597;40.636;0.278;2023-02-28T04:24:23;96861.06;;;6.48;45.71
56719;BME280;42597;40.636;0.278;2023-02-28T04:26:50;96841.84;;;7.91;42.29
56719;BME280;42597;40.636;0.278;2023-02-28T04:29:22;96860.38;;;7.93;50.79
56719;BME280;42597;40.636;0.278;2023-02-28T04:31:48;96809.06;;;10.61;46.65
56719;BME280;42597;40.636;0.278;2023-02-28T04:34:13;96855.00;;;8.17;45.34
56719;BME280;42597;40.636;0.278;2023-02-28T04:36:39;96850.31;;;9.19;49.27
56719;BME280;42597;40.636;0.278;2023-02-28T04:39:04;96852.94;;;9.31;43.93
56719;BME280;42597;40.636;0.278;2023-02-28T04:41:30;96851.28;;;8.99;43.16
56719;BME280;42597;40.636;0.278;2023-02-28T04:43:55;96859.13;;;9.32;47.81
56719;BME280;42597;40.636;0.278;2023-02-28T04:46:22;96861.25;;;7.72;48.13
56719;BME280;42597;40.636;0.278;2023-02-28T04:48:48;96838.03;;;7.22;44.88
56719;BME280;42597;40.636;0.278;2023-02-28T04:51:15;96855.28;;;9.77;44.42
56719;BME280;42597;40.636;0.278;2023-02-28T04:53:41;96851.63;;;8.32;49.10
56719;BME280;42597;40.636;0.278;2023-02-28T04:56:10;96843.53;;;9.53;43.55
56719;BME280;42597;40.636;0.278;2023-02-28T04:58:36;96875.06;;;6.54;46.54
56719;BME280;42597;40.636;0.278;2023-02-28T05:01:05;96853.31;;;9.89;48.12
56719;BME280;42597;40.636;0.278;2023-02-28T05:03:39;96864.72;;;7.39;47.73
56719;BME280;42597;40.636;0.278;2023-02-28T05:06:06;96855.84;;;8.70;49.92
56719;BME280;42597;40.636;0.278;2023-02-28T05:08:33;96832.06;;;7.50;45.04
56719;BME280;42597;40.636;0.278;2023-02-28T05:10:59;96850.69;;;6.59;50.07
56719;BME280;42597;40.636;0.278;2023-02-28T05:13:26;96864.13;;;9.46;42.63
56719;BME280;42597;40.636;0.278;2023-02-28T05:15:52;96855.63;;;7.65;46.66
56719;BME280;42597;40.636;0.278;2023-02-28T05:18:18;96830.81;;;9.10;44.56
56719;BME280;42597;40.636;0.278;2023-02-28T05:20:44;96871.13;;;5.83;44.90
56719;BME280;42597;40.636;0.278;2023-02-28T05:23:13;96843.06;;;7.57;50.00
56719;BME280;42597;40.636;0.278;2023-02-28T05:25:40;96824.28;;;7.03;48.22
56719;BME280;42597;40.636;0.278;2023-02-28T05:28:06;96827.00;;;9.55;47.42
56719;BME280;42597;40.636;0.278;2023-02-28T05:30:32;96862.84;;;9.55;47.57
56719;BME280;42597;40.636;0.278;2023-02-28T05:32:58;96861.97;;;6.73;47.33
56719;BME280;42597;40.636;0.278;2023-02-28T05:35:24;96850.69;;;7.79;49.33
56719;BME280;42597;40.636;0.278;2023-02-28T05:37:50;96866.09;;;10.24;44.61
56719;BME280;42597;40.636;0.278;2023-02-28T05:40:16;96876.16;;;5.93;46.81
56719;BME280;42597;40.636;0.278;2023-02-28T05:42:42;96874.06;;;6.37;45.48
56719;BME280;42597;40.636;0.278;2023-02-28T05:45:08;96829.13;;;8.77;44.52
56719;BME280;42597;40.636;0.278;2023-02-28T05:47:35;96839.06;;;8.00;47.86
56719;BME280;42597;40.636;0.278;2023-02-28T05:50:01;96855.72;;;7.23;42.17
56719;BME280;42597;40.636;0.278;2023-02-28T05:52:28;96851.25;;;7.27;46.19
56719;BME280;42597;40.636;0.278;2023-02-28T05:54:55;96870.22;;;7.88;45.75
56719;BME280;42597;40.636;0.278;2023-02-28T05:57:21;96856.44;;;7.11;49.29
56719;BME280;42597;40.636;0.278;2023-02-28T05:59:47;96906.06;;;9.87;44.83
56719;BME280;42597;40.636;0.278;2023-02-28T06:02:14;96856.28;;;8.84;45.04
56719;BME280;42597;40.636;0.278;2023-02-28T06:04:40;96854.41;;;9.88;44.87
56719;BME280;42597;40.636;0.278;2023-02-28T06:07:07;96879.84;;;7.77;41.54
56719;BME280;42597;40.636;0.278;2023-02-28T06:09:32;96879.44;;;10.17;43.60
56719;BME280;42597;40.636;0.278;2023-02-28T06:11:59;96915.94;;;7.76;44.86
56719;BME280;42597;40.636;0.278;2023-02-28T06:14:25;96916.63;;;7.98;41.40
56719;BME280;42597;40.636;0.278;2023-02-28T06:16:51;96917.25;;;4.81;46.38
56719;BME280;42597;40.636;0.278;2023-02-28T06:19:17;96913.22;;;7.43;44.89
56719;BME280;42597;40.636;0.278;2023-02-28T06:21:43;96945.28;;;7.27;48.95
56719;BME280;42597;40.636;0.278;2023-02-28T06:24:09;96950.47;;;7.11;48.30
56719;BME280;42597;40.636;0.278;2023-02-28T06:26:35;96961.69;;;5.34;48.14
56719;BME280;42597;40.636;0.278;2023-02-28T06:29:01;96917.66;;;9.59;49.28
56719;BME280;42597;40.636;0.278;2023-02-28T06:31:26;96924.53;;;8.64;44.55
56719;BME280;42597;40.636;0.278;2023-02-28T06:33:54;96907.00;;;8.82;49.25
56719;BME280;42597;40.636;0.278;2023-02-28T06:36:20;96924.63;;;8.19;43.57
56719;BME280;42597;40.636;0.278;2023-02-28T06:38:46;96919.50;;;10.62;46.47
56719;BME280;42597;40.636;0.278;2023-02-28T06:41:17;96906.53;;;10.36;46.90
56719;BME280;42597;40.636;0.278;2023-02-28T06:43:43;96912.75;;;10.09;47.29
56719;BME280;42597;40.636;0.278;2023-02-28T06:46:12;96906.31;;;8.12;44.54
56719;BME280;42597;40.636;0.278;2023-02-28T06:48:39;96855.69;;;9.19;43.24
56719;BME280;42597;40.636;0.278;2023-02-28T06:51:05;96927.94;;;7.91;45.98
56719;BME280;42597;40.636;0.278;2023-02-28T06:53:32;96948.22;;;9.23;44.79
56719;BME280;42597;40.636;0.278;2023-02-28T06:55:57;96932.13;;;8.99;46.14
56719;BME280;42597;40.636;0.278;2023-02-28T06:58:23;96934.25;;;8.20;48.48
56719;BME280;42597;40.636;0.278;2023-02-28T07:00:51;96929.31;;;9.35;48.78
56719;BME280;42597;40.636;0.278;2023-02-28T07:03:17;96934.19;;;9.58;45.28
56719;BME280;42597;40.636;0.278;2023-02-28T07:05:44;96952.22;;;9.01;43.36
56719;BME280;42597;40.636;0.278;2023-02-28T07:08:10;96942.88;;;8.01;42.15
56719;BME280;42597;40.636;0.278;2023-02-28T07:10:39;96920.84;;;10.72;46.45
56719;BME280;42597;40.636;0.278;2023-02-28T07:13:05;96945.97;;;10.41;46.19
56719;BME280;42597;40.636;0.278;2023-02-28T07:15:31;96946.06;;;9.01;43.41
56719;BME280;42597;40.636;0.278;2023-02-28T07:17:56;96941.16;;;10.03;43.64
56719;BME280;42597;40.636;0.278;2023-02-28T07:20:22;96953.69;;;8.99;42.47
56719;BME280;42597;40.636;0.278;2023-02-28T07:22:49;96945.66;;;7.92;44.17
56719;BME280;42597;40.636;0.278;2023-02-28T07:25:22;96948.63;;;9.50;42.27
56719;BME280;42597;40.636;0.278;2023-02-28T07:27:48;96935.56;;;7.89;44.01
56719;BME280;42597;40.636;0.278;2023-02-28T07:30:14;96932.56;;;9.69;44.46
56719;BME280;42597;40.636;0.278;2023-02-28T07:32:39;96959.66;;;9.32;46.48
56719;BME280;42597;40.636;0.278;2023-02-28T07:35:05;96942.41;;;10.53;46.28
56719;BME280;42597;40.636;0.278;2023-02-28T07:37:31;96964.63;;;8.08;42.75
56719;BME280;42597;40.636;0.278;2023-02-28T07:40:05;96959.03;;;9.11;43.16
56719;BME280;42597;40.636;0.278;2023-02-28T07:42:34;96936.00;;;9.54;47.57
56719;BME280;42597;40.636;0.278;2023-02-28T07:44:59;96970.69;;;9.27;45.00
56719;BME280;42597;40.636;0.278;2023-02-28T07:47:25;96956.25;;;8.22;47.94
56719;BME280;42597;40.636;0.278;2023-02-28T07:49:50;96952.25;;;9.42;47.02
56719;BME280;42597;40.636;0.278;2023-02-28T07:52:16;96938.19;;;10.08;46.38
56719;BME280;42597;40.636;0.278;2023-02-28T07:54:41;96951.03;;;8.62;47.64
56719;BME280;42597;40.636;0.278;2023-02-28T07:57:07;96943.53;;;9.76;45.38
56719;BME280;42597;40.636;0.278;2023-02-28T07:59:33;96984.81;;;9.36;46.18
56719;BME280;42597;40.636;0.278;2023-02-28T08:01:58;96955.44;;;9.19;42.14
56719;BME280;42597;40.636;0.278;2023-02-28T08:04:24;96974.38;;;8.46;46.41
56719;BME280;42597;40.636;0.278;2023-02-28T08:06:50;96990.06;;;8.80;45.24
56719;BME280;42597;40.636;0.278;2023-02-28T08:09:18;96988.41;;;9.40;46.49
56719;BME280;42597;40.636;0.278;2023-02-28T08:11:43;96940.66;;;10.13;45.67
56719;BME280;42597;40.636;0.278;2023-02-28T08:14:09;96987.56;;;9.00;44.76
56719;BME280;42597;40.636;0.278;2023-02-28T08:16:34;96959.03;;;9.79;43.90
56719;BME280;42597;40.636;0.278;2023-02-28T08:19:00;97012.53;;;10.81;45.33
56719;BME280;42597;40.636;0.278;2023-02-28T08:21:25;97011.38;;;10.19;45.57
56719;BME280;42597;40.636;0.278;2023-02-28T08:23:51;96956.41;;;9.67;46.42
56719;BME280;42597;40.636;0.278;2023-02-28T08:26:17;96990.88;;;8.93;46.13
56719;BME280;42597;40.636;0.278;2023-02-28T08:28:44;97007.06;;;10.02;43.64
56719;BME280;42597;40.636;0.278;2023-02-28T08:31:11;97004.28;;;10.26;42.35
56719;BME280;42597;40.636;0.278;2023-02-28T08:33:38;96963.47;;;8.42;44.15
56719;BME280;42597;40.636;0.278;2023-02-28T08:36:05;96983.56;;;9.74;44.58
56719;BME280;42597;40.636;0.278;2023-02-28T08:38:31;96978.03;;;7.96;46.95
56719;BME280;42597;40.636;0.278;2023-02-28T08:40:58;96974.09;;;9.12;46.13
56719;BME280;42597;40.636;0.278;2023-02-28T08:43:24;96985.91;;;10.04;45.25
56719;BME280;42597;40.636;0.278;2023-02-28T08:45:54;97018.75;;;8.39;45.39
56719;BME280;42597;40.636;0.278;2023-02-28T08:48:19;96983.78;;;9.01;42.91
56719;BME280;42597;40.636;0.278;2023-02-28T08:51:01;97013.75;;;8.05;44.54
56719;BME280;42597;40.636;0.278;2023-02-28T08:53:27;96982.97;;;7.94;48.44
56719;BME280;42597;40.636;0.278;2023-02-28T08:56:01;96993.84;;;9.84;44.58
56719;BME280;42597;40.636;0.278;2023-02-28T08:58:27;96992.09;;;9.76;45.49
56719;BME280;42597;40.636;0.278;2023-02-28T09:00:53;96981.34;;;10.83;44.59
56719;BME280;42597;40.636;0.278;2023-02-28T09:03:19;96991.72;;;10.81;44.50
56719;BME280;42597;40.636;0.278;2023-02-28T09:05:55;97013.28;;;9.62;43.06
56719;BME280;42597;40.636;0.278;2023-02-28T09:08:22;97023.78;;;11.50;42.95
56719;BME280;42597;40.636;0.278;2023-02-28T09:10:47;97003.47;;;10.73;40.74
56719;BME280;42597;40.636;0.278;2023-02-28T09:13:13;97011.66;;;9.85;41.71
56719;BME280;42597;40.636;0.278;2023-02-28T09:15:39;97018.66;;;10.02;41.79
56719;BME280;42597;40.636;0.278;2023-02-28T09:18:04;96987.88;;;9.91;44.15
56719;BME280;42597;40.636;0.278;2023-02-28T09:20:30;97012.56;;;10.49;45.20
56719;BME280;42597;40.636;0.278;2023-02-28T09:22:56;97026.41;;;8.50;41.27
56719;BME280;42597;40.636;0.278;2023-02-28T09:25:21;97009.56;;;11.18;43.65
56719;BME280;42597;40.636;0.278;2023-02-28T09:27:47;97019.63;;;11.21;42.80
56719;BME280;42597;40.636;0.278;2023-02-28T09:30:12;97013.00;;;10.07;42.18
56719;BME280;42597;40.636;0.278;2023-02-28T09:32:38;97027.03;;;11.40;43.87
56719;BME280;42597;40.636;0.278;2023-02-28T09:35:04;97022.06;;;9.06;43.90
56719;BME280;42597;40.636;0.278;2023-02-28T09:37:30;97034.78;;;9.58;45.80
56719;BME280;42597;40.636;0.278;2023-02-28T09:39:56;97035.31;;;10.20;45.45
56719;BME280;42597;40.636;0.278;2023-02-28T09:42:29;97040.44;;;10.37;42.70
56719;BME280;42597;40.636;0.278;2023-02-28T09:44:56;97022.22;;;9.78;40.28
56719;BME280;42597;40.636;0.278;2023-02-28T09:47:32;97031.31;;;10.90;41.30
56719;BME280;42597;40.636;0.278;2023-02-28T09:50:06;97029.03;;;10.60;44.58
56719;BME280;42597;40.636;0.278;2023-02-28T09:52:37;97031.53;;;9.40;41.61
56719;BME280;42597;40.636;0.278;2023-02-28T09:57:54;97042.59;;;11.11;42.91
56719;BME280;42597;40.636;0.278;2023-02-28T10:00:42;97052.38;;;10.52;41.59
56719;BME280;42597;40.636;0.278;2023-02-28T10:06:13;97039.47;;;11.09;42.62
56719;BME280;42597;40.636;0.278;2023-02-28T10:08:56;97088.16;;;9.65;43.03
56719;BME280;42597;40.636;0.278;2023-02-28T10:11:24;97053.13;;;10.37;41.24
56719;BME280;42597;40.636;0.278;2023-02-28T10:13:59;97063.03;;;10.93;43.11
56719;BME280;42597;40.636;0.278;2023-02-28T10:16:34;97082.84;;;11.48;41.53
56719;BME280;42597;40.636;0.278;2023-02-28T10:19:12;97104.97;;;10.86;42.47
56719;BME280;42597;40.636;0.278;2023-02-28T10:24:35;97073.69;;;10.85;42.49
56719;BME280;42597;40.636;0.278;2023-02-28T10:29:49;97075.44;;;10.34;40.70
56719;BME280;42597;40.636;0.278;2023-02-28T10:32:22;97112.03;;;10.31;42.58
56719;BME280;42597;40.636;0.278;2023-02-28T10:34:55;97085.44;;;10.61;42.89
56719;BME280;42597;40.636;0.278;2023-02-28T10:37:22;97088.44;;;11.39;42.60
56719;BME280;42597;40.636;0.278;2023-02-28T10:39:47;97114.34;;;10.45;42.07
56719;BME280;42597;40.636;0.278;2023-02-28T10:42:27;97117.53;;;11.10;41.65
56719;BME280;42597;40.636;0.278;2023-02-28T10:50:59;97109.59;;;11.02;41.06
56719;BME280;42597;40.636;0.278;2023-02-28T10:56:04;97095.97;;;11.65;40.90
56719;BME280;42597;40.636;0.278;2023-02-28T10:58:52;97130.75;;;11.63;41.88
56719;BME280;42597;40.636;0.278;2023-02-28T11:06:46;97136.88;;;10.97;41.98
56719;BME280;42597;40.636;0.278;2023-02-28T11:09:33;97178.25;;;10.69;39.04
56719;BME280;42597;40.636;0.278;2023-02-28T11:12:06;97126.06;;;11.12;42.94
56719;BME280;42597;40.636;0.278;2023-02-28T11:14:42;97161.13;;;10.93;42.34
56719;BME280;42597;40.636;0.278;2023-02-28T11:17:24;97151.94;;;10.66;42.34
56719;BME280;42597;40.636;0.278;2023-02-28T11:19:58;97145.75;;;11.60;41.21
56719;BME280;42597;40.636;0.278;2023-02-28T11:22:30;97195.34;;;9.44;38.96
56719;BME280;42597;40.636;0.278;2023-02-28T11:24:58;97148.78;;;10.36;40.44
56719;BME280;42597;40.636;0.278;2023-02-28T11:29:58;97155.56;;;11.18;40.56
56719;BME280;42597;40.636;0.278;2023-02-28T11:32:28;97167.16;;;11.18;40.28
56719;BME280;42597;40.636;0.278;2023-02-28T11:35:17;97136.63;;;11.02;41.66
56719;BME280;42597;40.636;0.278;2023-02-28T11:37:47;97171.06;;;11.52;41.64
56719;BME280;42597;40.636;0.278;2023-02-28T11:40:18;97159.16;;;11.06;42.79
56719;BME280;42597;40.636;0.278;2023-02-28T11:49:06;97173.94;;;11.59;40.29
56719;BME280;42597;40.636;0.278;2023-02-28T11:51:54;97164.56;;;11.06;42.07
56719;BME280;42597;40.636;0.278;2023-02-28T12:00:08;97163.16;;;11.44;41.17
56719;BME280;42597;40.636;0.278;2023-02-28T12:06:04;97156.50;;;10.50;40.33
56719;BME280;42597;40.636;0.278;2023-02-28T12:08:52;97147.09;;;11.19;38.88
56719;BME280;42597;40.636;0.278;2023-02-28T12:19:43;97154.53;;;11.73;41.98
56719;BME280;42597;40.636;0.278;2023-02-28T12:22:27;97147.69;;;11.44;42.69
56719;BME280;42597;40.636;0.278;2023-02-28T12:27:59;97131.50;;;9.72;39.88
56719;BME280;42597;40.636;0.278;2023-02-28T12:30:27;97125.59;;;9.54;39.84
56719;BME280;42597;40.636;0.278;2023-02-28T12:33:07;97139.22;;;10.67;41.39
56719;BME280;42597;40.636;0.278;2023-02-28T12:35:38;97137.59;;;11.76;42.21
56719;BME280;42597;40.636;0.278;2023-02-28T12:38:30;97137.72;;;10.01;39.35
56719;BME280;42597;40.636;0.278;2023-02-28T12:44:01;97127.50;;;9.54;43.83
56719;BME280;42597;40.636;0.278;2023-02-28T12:46:34;97151.88;;;8.63;40.59
56719;BME280;42597;40.636;0.278;2023-02-28T12:49:08;97150.84;;;9.01;41.87
56719;BME280;42597;40.636;0.278;2023-02-28T12:51:35;97151.53;;;8.98;41.39
56719;BME280;42597;40.636;0.278;2023-02-28T12:57:09;97136.94;;;9.48;42.73
56719;BME280;42597;40.636;0.278;2023-02-28T13:00:18;97116.56;;;10.15;43.29
56719;BME280;42597;40.636;0.278;2023-02-28T13:08:44;97106.53;;;10.72;42.37
56719;BME280;42597;40.636;0.278;2023-02-28T13:11:46;97076.00;;;10.71;44.67
56719;BME280;42597;40.636;0.278;2023-02-28T13:19:40;97112.50;;;10.09;40.69
56719;BME280;42597;40.636;0.278;2023-02-28T13:22:17;97108.41;;;10.55;39.10
56719;BME280;42597;40.636;0.278;2023-02-28T13:24:46;97094.75;;;10.08;39.73
56719;BME280;42597;40.636;0.278;2023-02-28T13:29:43;97097.84;;;10.34;42.92
56719;BME280;42597;40.636;0.278;2023-02-28T13:34:40;97097.72;;;9.50;41.41
56719;BME280;42597;40.636;0.278;2023-02-28T14:01:30;97083.38;;;9.86;40.57
56719;BME280;42597;40.636;0.278;2023-02-28T14:06:53;97101.03;;;10.68;44.03
56719;BME280;42597;40.636;0.278;2023-02-28T14:09:38;97107.69;;;10.86;38.34
56719;BME280;42597;40.636;0.278;2023-02-28T14:17:54;97112.19;;;9.70;40.81
56719;BME280;42597;40.636;0.278;2023-02-28T14:20:21;97127.72;;;10.13;39.83
56719;BME280;42597;40.636;0.278;2023-02-28T14:31:11;97123.06;;;11.49;40.04
56719;BME280;42597;40.636;0.278;2023-02-28T14:34:13;97113.53;;;11.71;43.83
56719;BME280;42597;40.636;0.278;2023-02-28T14:36:43;97112.38;;;11.21;44.38
56719;BME280;42597;40.636;0.278;2023-02-28T14:39:22;97120.19;;;10.63;40.85
56719;BME280;42597;40.636;0.278;2023-02-28T14:41:48;97077.66;;;11.94;40.03
56719;BME280;42597;40.636;0.278;2023-02-28T14:46:49;97105.84;;;10.31;38.33
56719;BME280;42597;40.636;0.278;2023-02-28T14:51:50;97117.53;;;9.95;40.71
56719;BME280;42597;40.636;0.278;2023-02-28T14:54:26;97109.34;;;10.19;39.69
56719;BME280;42597;40.636;0.278;2023-02-28T14:56:52;97123.81;;;11.66;39.83
56719;BME280;42597;40.636;0.278;2023-02-28T14:59:33;97127.34;;;9.75;41.05
56719;BME280;42597;40.636;0.278;2023-02-28T15:04:43;97114.38;;;11.75;40.90
56719;BME280;42597;40.636;0.278;2023-02-28T15:07:17;97126.09;;;11.64;41.97
56719;BME280;42597;40.636;0.278;2023-02-28T15:09:42;97100.88;;;10.93;43.07
56719;BME280;42597;40.636;0.278;2023-02-28T15:12:14;97129.34;;;10.58;42.24
56719;BME280;42597;40.636;0.278;2023-02-28T15:14:42;97123.53;;;10.72;40.49
56719;BME280;42597;40.636;0.278;2023-02-28T15:17:18;97108.28;;;11.27;41.71
56719;BME280;42597;40.636;0.278;2023-02-28T15:19:50;97106.56;;;9.75;41.30
56719;BME280;42597;40.636;0.278;2023-02-28T15:22:27;97095.56;;;10.36;40.93
56719;BME280;42597;40.636;0.278;2023-02-28T15:24:55;97103.19;;;9.78;39.73
56719;BME280;42597;40.636;0.278;2023-02-28T15:27:25;97123.34;;;9.07;39.15
56719;BME280;42597;40.636;0.278;2023-02-28T15:29:55;97115.47;;;10.60;41.04
56719;BME280;42597;40.636;0.278;2023-02-28T15:32:41;97128.03;;;9.59;42.04
56719;BME280;42597;40.636;0.278;2023-02-28T15:37:53;97121.81;;;10.52;40.40
56719;BME280;42597;40.636;0.278;2023-02-28T15:40:37;97139.63;;;9.48;41.87
56719;BME280;42597;40.636;0.278;2023-02-28T15:43:13;97115.53;;;11.23;43.37
56719;BME280;42597;40.636;0.278;2023-02-28T15:45:48;97122.47;;;10.33;44.14
56719;BME280;42597;40.636;0.278;2023-02-28T15:50:56;97120.66;;;11.28;43.12
56719;BME280;42597;40.636;0.278;2023-02-28T15:53:32;97117.25;;;9.59;39.91
56719;BME280;42597;40.636;0.278;2023-02-28T15:56:04;97124.53;;;10.52;43.15
56719;BME280;42597;40.636;0.278;2023-02-28T15:58:30;97120.38;;;11.49;42.88
56719;BME280;42597;40.636;0.278;2023-02-28T16:03:45;97113.91;;;10.03;39.98
56719;BME280;42597;40.636;0.278;2023-02-28T16:06:26;97101.19;;;11.39;44.76
56719;BME280;42597;40.636;0.278;2023-02-28T16:08:55;97104.09;;;11.30;43.84
56719;BME280;42597;40.636;0.278;2023-02-28T16:11:21;97103.78;;;10.00;41.18